createdAt,value
2023-01-09T00:04:44.109Z,98626.13
2023-01-09T00:09:46.975Z,98618.75
2023-01-09T00:14:49.791Z,98615.69
2023-01-09T00:19:53.997Z,98610.53
2023-01-09T00:24:56.710Z,98602.69
2023-01-09T00:29:59.665Z,98603.16
2023-01-09T00:35:04.118Z,98591.75
2023-01-09T00:40:07.476Z,98585.34
2023-01-09T00:45:12.802Z,98571.38
2023-01-09T00:50:24.793Z,98563.09
2023-01-09T00:55:27.594Z,98536.66
2023-01-09T01:00:30.503Z,98535.34
2023-01-09T01:05:48.475Z,98529.75
2023-01-09T01:10:51.345Z,98525.03
2023-01-09T01:15:54.134Z,98526.16
2023-01-09T01:20:58.259Z,98521.47
2023-01-09T01:26:05.730Z,98520.81
2023-01-09T01:31:08.562Z,98519.97
2023-01-09T01:36:12.845Z,98509.31
2023-01-09T01:41:29.226Z,98511.06
2023-01-09T01:46:34.040Z,98508.41
2023-01-09T01:51:41.495Z,98499.22
2023-01-09T01:56:46.118Z,98497.09
2023-01-09T02:01:51.796Z,98485.03
2023-01-09T02:06:57.450Z,98489.25
2023-01-09T02:12:01.253Z,98475.69
2023-01-09T02:17:10.838Z,98472.53
2023-01-09T02:22:21.267Z,98462.38
2023-01-09T02:27:52.248Z,98456.72
2023-01-09T02:33:13.662Z,98446.72
2023-01-09T02:38:23.460Z,98445.44
2023-01-09T02:43:26.621Z,98443.91
2023-01-09T02:48:31.785Z,98442.88
2023-01-09T02:53:48.099Z,98440.50
2023-01-09T02:59:17.528Z,98445.94
2023-01-09T03:04:28.575Z,98442.63
2023-01-09T03:09:37.007Z,98440.16
2023-01-09T03:14:44.381Z,98442.63
2023-01-09T03:19:49.765Z,98443.69
2023-01-09T03:24:52.480Z,98447.13
2023-01-09T03:29:56.580Z,98444.34
2023-01-09T03:35:01.838Z,98440.34
2023-01-09T03:40:05.246Z,98436.13
2023-01-09T03:45:08.451Z,98428.13
2023-01-09T03:50:13.021Z,98423.53
2023-01-09T03:55:15.896Z,98415.84
2023-01-09T04:00:19.584Z,98403.63
2023-01-09T04:05:23.900Z,98393.59
2023-01-09T04:10:26.683Z,98387.75
2023-01-09T04:15:29.441Z,98384.34
2023-01-09T04:20:33.641Z,98375.22
2023-01-09T04:25:36.382Z,98370.69
2023-01-09T04:30:39.170Z,98379.00
2023-01-09T04:35:43.272Z,98368.38
2023-01-09T04:40:47.917Z,98361.53
2023-01-09T04:45:50.721Z,98356.28
2023-01-09T04:50:54.903Z,98359.44
2023-01-09T04:55:57.638Z,98350.78
2023-01-09T05:01:00.443Z,98341.53
2023-01-09T05:06:05.018Z,98336.66
2023-01-09T05:11:07.884Z,98327.91
2023-01-09T05:16:10.869Z,98332.34
2023-01-09T05:21:15.074Z,98326.47
2023-01-09T05:26:17.776Z,98317.84
2023-01-09T05:31:21.453Z,98324.84
2023-01-09T05:36:25.697Z,98330.53
2023-01-09T05:41:28.464Z,98324.84
2023-01-09T05:46:31.131Z,98335.38
2023-01-09T05:51:35.214Z,98334.41
2023-01-09T05:56:37.913Z,98322.41
2023-01-09T06:01:40.719Z,98323.31
2023-01-09T06:06:44.846Z,98327.19
2023-01-09T06:11:47.839Z,98327.81
2023-01-09T06:16:51.221Z,98326.66
2023-01-09T06:21:55.420Z,98346.56
2023-01-09T06:26:58.213Z,98336.91
2023-01-09T06:32:00.924Z,98350.97
2023-01-09T06:37:05.117Z,98354.75
2023-01-09T06:42:08.245Z,98351.78
2023-01-09T06:47:10.998Z,98348.00
2023-01-09T06:52:15.058Z,98344.38
2023-01-09T06:57:17.789Z,98347.19
2023-01-09T07:02:22.343Z,98357.47
2023-01-09T07:07:26.561Z,98360.72
2023-01-09T07:12:29.476Z,98377.66
2023-01-09T07:17:32.741Z,98378.09
2023-01-09T07:22:36.981Z,98384.75
2023-01-09T07:27:39.974Z,98400.28
2023-01-09T07:32:42.929Z,98414.97
2023-01-09T07:37:47.691Z,98402.91
2023-01-09T07:42:50.497Z,98417.59
2023-01-09T07:47:53.234Z,98426.88
2023-01-09T07:52:57.384Z,98433.53
2023-01-09T07:58:00.117Z,98443.81
2023-01-09T08:03:02.951Z,98451.28
2023-01-09T08:08:07.497Z,98457.78
2023-01-09T08:13:10.339Z,98473.13
2023-01-09T08:18:13.120Z,98475.22
2023-01-09T08:23:17.265Z,98480.28
2023-01-09T08:28:20.074Z,98490.09
2023-01-09T08:33:22.893Z,98487.63
2023-01-09T08:38:27.003Z,98506.19
2023-01-09T08:43:47.127Z,98507.97
2023-01-09T08:48:49.874Z,98535.13
2023-01-09T08:53:53.961Z,98528.09
2023-01-09T08:58:56.704Z,98521.06
2023-01-09T09:03:59.425Z,98544.88
2023-01-09T09:09:03.868Z,98553.16
2023-01-09T09:14:26.860Z,98580.88
2023-01-09T09:19:29.580Z,98587.44
2023-01-09T09:24:33.636Z,98577.81
2023-01-09T09:29:36.418Z,98580.69
2023-01-09T09:34:39.216Z,98600.97
2023-01-09T09:39:43.418Z,98593.59
2023-01-09T09:44:59.130Z,98600.47
2023-01-09T09:50:07.723Z,98601.53
2023-01-09T09:55:17.953Z,98587.53
2023-01-09T10:00:22.109Z,98606.66
2023-01-09T10:05:28.718Z,98631.66
2023-01-09T10:10:36.306Z,98634.13
2023-01-09T10:15:51.669Z,98650.38
2023-01-09T10:20:58.546Z,98646.84
2023-01-09T10:26:07.981Z,98682.63
2023-01-09T10:31:16.293Z,98675.94
2023-01-09T10:36:38.096Z,98647.75
2023-01-09T10:41:46.213Z,98695.88
2023-01-09T10:46:53.130Z,98674.22
2023-01-09T10:52:05.459Z,98674.06
2023-01-09T10:57:16.144Z,98710.97
2023-01-09T11:02:28.719Z,98712.41
2023-01-09T11:07:34.854Z,98691.00
2023-01-09T11:12:40.231Z,98699.72
2023-01-09T11:17:43.471Z,98689.22
2023-01-09T11:22:47.670Z,98674.59
2023-01-09T11:28:05.125Z,98682.97
2023-01-09T11:33:15.436Z,98672.69
2023-01-09T11:38:18.611Z,98677.53
2023-01-09T11:43:30.746Z,98685.91
2023-01-09T11:48:39.355Z,98677.47
2023-01-09T11:53:47.137Z,98672.75
2023-01-09T11:58:51.194Z,98683.22
2023-01-09T12:04:12.998Z,98659.09
2023-01-09T12:09:20.279Z,98675.22
2023-01-09T12:14:32.269Z,98667.63
2023-01-09T12:19:54.495Z,98670.84
2023-01-09T12:25:17.697Z,98691.09
2023-01-09T12:30:28.968Z,98677.13
2023-01-09T12:35:36.644Z,98679.47
2023-01-09T12:40:49.731Z,98684.72
2023-01-09T12:46:03.766Z,98675.03
2023-01-09T12:51:12.669Z,98683.41
2023-01-09T12:56:18.138Z,98701.13
2023-01-09T13:01:25.403Z,98707.19
2023-01-09T13:06:30.013Z,98699.69
2023-01-09T13:11:35.713Z,98707.06
2023-01-09T13:16:43.414Z,98705.75
2023-01-09T13:21:46.523Z,98695.38
2023-01-09T13:26:51.937Z,98707.38
2023-01-09T13:32:11.243Z,98723.38
2023-01-09T13:37:22.131Z,98749.09
2023-01-09T13:42:39.700Z,98741.50
2023-01-09T13:47:44.248Z,98742.78
2023-01-09T13:52:46.949Z,98749.63
2023-01-09T13:58:25.946Z,98766.53
2023-01-09T14:03:33.486Z,98764.25
2023-01-09T14:08:36.267Z,98775.66
2023-01-09T14:13:44.905Z,98781.91
2023-01-09T14:18:51.188Z,98791.44
2023-01-09T14:24:03.444Z,98798.97
2023-01-09T14:29:37.904Z,98798.47
2023-01-09T14:34:43.538Z,98806.69
2023-01-09T14:39:47.484Z,98814.16
2023-01-09T14:44:52.154Z,98813.81
2023-01-09T14:49:59.696Z,98825.25
2023-01-09T14:55:04.054Z,98815.78
2023-01-09T15:00:16.470Z,98834.91
2023-01-09T15:05:23.531Z,98837.84
2023-01-09T15:10:29.982Z,98832.13
2023-01-09T15:15:32.783Z,98847.16
2023-01-09T15:20:37.119Z,98846.41
2023-01-09T15:25:40.933Z,98849.69
2023-01-09T15:30:43.936Z,98854.63
2023-01-09T15:35:50.092Z,98850.97
2023-01-09T15:40:54.947Z,98848.75
2023-01-09T15:45:58.328Z,98856.72
2023-01-09T15:51:06.708Z,98854.78
2023-01-09T15:56:20.577Z,98867.69
2023-01-09T16:01:29.751Z,98867.88
2023-01-09T16:06:35.566Z,98872.41
2023-01-09T16:11:39.536Z,98882.03
2023-01-09T16:16:42.696Z,98882.03
2023-01-09T16:21:57.802Z,98871.06
2023-01-09T16:27:23.948Z,98879.88
2023-01-09T16:32:29.559Z,98868.56
2023-01-09T16:37:34.064Z,98880.19
2023-01-09T16:42:54.754Z,98884.25
2023-01-09T16:47:58.226Z,98887.84
2023-01-09T16:53:07.525Z,98898.31
2023-01-09T16:58:14.246Z,98906.00
2023-01-09T17:03:19.188Z,98906.28
2023-01-09T17:08:25.283Z,98914.78
2023-01-09T17:13:28.162Z,98916.59
2023-01-09T17:18:30.947Z,98922.63
2023-01-09T17:23:35.073Z,98929.16
2023-01-09T17:28:38.553Z,98930.16
2023-01-09T17:33:42.056Z,98944.72
2023-01-09T17:38:47.165Z,98944.91
2023-01-09T17:43:50.110Z,98945.69
2023-01-09T17:48:54.170Z,98951.44
2023-01-09T17:53:58.576Z,98966.00
2023-01-09T17:59:02.569Z,98972.38
2023-01-09T18:04:05.467Z,98980.38
2023-01-09T18:09:10.914Z,98980.72
2023-01-09T18:14:14.080Z,99005.53
2023-01-09T18:19:16.983Z,99003.25
2023-01-09T18:24:21.149Z,99009.78
2023-01-09T18:29:24.231Z,99015.00
2023-01-09T18:34:27.002Z,99023.50
2023-01-09T18:39:31.407Z,99028.72
2023-01-09T18:44:34.123Z,99026.59
2023-01-09T18:49:36.924Z,99031.34
2023-01-09T18:54:42.646Z,99047.50
2023-01-09T18:59:45.410Z,99043.09
2023-01-09T19:04:48.257Z,99052.56
2023-01-09T19:09:52.527Z,99048.19
2023-01-09T19:14:55.698Z,99054.69
2023-01-09T19:19:58.441Z,99064.50
2023-01-09T19:25:02.513Z,99059.59
2023-01-09T19:30:06.380Z,99058.13
2023-01-09T19:35:09.915Z,99070.03
2023-01-09T19:40:14.702Z,99059.72
2023-01-09T19:45:17.492Z,99067.22
2023-01-09T19:50:21.870Z,99067.88
2023-01-09T19:55:26.005Z,99091.53
2023-01-09T20:00:28.725Z,99099.97
2023-01-09T20:05:31.527Z,99101.63
2023-01-09T20:10:35.782Z,99120.06
2023-01-09T20:15:38.776Z,99132.59
2023-01-09T20:20:44.507Z,99140.75
2023-01-09T20:25:48.938Z,99150.34
2023-01-09T20:30:53.546Z,99152.09
2023-01-09T20:35:56.347Z,99157.75
2023-01-09T20:41:08.290Z,99164.91
2023-01-09T20:46:11.101Z,99166.06
2023-01-09T20:51:14.632Z,99187.41
2023-01-09T20:56:18.919Z,99197.47
2023-01-09T21:01:22.931Z,99199.56
2023-01-09T21:06:26.633Z,99211.16
2023-01-09T21:11:30.995Z,99231.19
2023-01-09T21:16:33.833Z,99230.38
2023-01-09T21:21:36.607Z,99231.66
2023-01-09T21:26:40.921Z,99248.78
2023-01-09T21:31:44.171Z,99264.44
2023-01-09T21:36:48.749Z,99268.16
2023-01-09T21:42:10.671Z,99270.06
2023-01-09T21:47:13.574Z,99273.69
2023-01-09T21:52:18.237Z,99286.00
2023-01-09T21:57:22.556Z,99295.28
2023-01-09T22:02:25.563Z,99315.50
2023-01-09T22:07:28.440Z,99312.13
2023-01-09T22:12:32.565Z,99338.44
2023-01-09T22:17:35.328Z,99352.09
2023-01-09T22:22:38.045Z,99353.72
2023-01-09T22:27:42.173Z,99366.47
2023-01-09T22:32:45.077Z,99370.78
2023-01-09T22:37:47.998Z,99376.66
2023-01-09T22:42:54.218Z,99379.97
2023-01-09T22:47:56.986Z,99391.00
2023-01-09T22:52:59.747Z,99387.91
2023-01-09T22:58:03.818Z,99399.44
2023-01-09T23:03:06.526Z,99405.50
2023-01-09T23:08:09.289Z,99420.44
2023-01-09T23:13:13.457Z,99439.09
2023-01-09T23:18:16.277Z,99452.25
2023-01-09T23:23:20.779Z,99456.34
2023-01-09T23:28:25.655Z,99467.97
2023-01-09T23:33:28.442Z,99482.34
2023-01-09T23:38:31.419Z,99486.50
2023-01-09T23:43:35.927Z,99493.81
2023-01-09T23:48:38.845Z,99493.66
2023-01-09T23:53:41.641Z,99498.53
2023-01-09T23:58:45.738Z,99498.38
